createdAt,value
2023-01-17T00:02:13.103Z,3.75
2023-01-17T00:06:13.539Z,3.33
2023-01-17T00:09:58.549Z,3.25
2023-01-17T00:13:40.954Z,3.00
2023-01-17T00:17:27.743Z,2.75
2023-01-17T00:21:28.496Z,3.17
2023-01-17T00:25:43.793Z,2.78
2023-01-17T00:29:25.604Z,3.10
2023-01-17T00:33:07.987Z,3.83
2023-01-17T00:36:49.842Z,3.38
2023-01-17T00:40:32.836Z,3.50
2023-01-17T00:44:33.459Z,3.40
2023-01-17T00:48:33.875Z,3.75
2023-01-17T00:52:34.159Z,4.07
2023-01-17T00:56:34.278Z,3.40
2023-01-17T01:00:37.297Z,3.33
2023-01-17T01:04:38.553Z,3.40
2023-01-17T01:08:42.506Z,3.72
2023-01-17T01:12:43.111Z,3.77
2023-01-17T01:16:43.513Z,3.13
2023-01-17T01:20:43.773Z,4.20
2023-01-17T01:24:44.463Z,4.37
2023-01-17T01:28:45.163Z,3.72
2023-01-17T01:32:45.691Z,4.60
2023-01-17T01:36:28.023Z,4.60
2023-01-17T01:40:10.906Z,4.13
2023-01-17T01:43:54.992Z,4.63
2023-01-17T01:47:40.845Z,5.03
2023-01-17T01:51:33.018Z,4.73
2023-01-17T01:55:22.874Z,3.75
2023-01-17T01:59:08.972Z,4.43
2023-01-17T02:02:53.334Z,4.00
2023-01-17T02:06:41.823Z,3.97
2023-01-17T02:10:24.120Z,4.68
2023-01-17T02:14:06.307Z,4.13
2023-01-17T02:18:14.592Z,3.87
2023-01-17T02:22:21.644Z,4.88
2023-01-17T02:26:44.834Z,5.07
2023-01-17T02:30:58.054Z,5.43
2023-01-17T02:34:58.926Z,4.45
2023-01-17T02:39:05.082Z,4.22
2023-01-17T02:42:54.382Z,4.60
2023-01-17T02:46:56.807Z,4.80
2023-01-17T02:50:48.848Z,5.10
2023-01-17T02:54:39.811Z,5.57
2023-01-17T02:58:33.486Z,5.60
2023-01-17T03:02:50.332Z,4.95
2023-01-17T03:07:03.504Z,5.28
2023-01-17T03:10:46.167Z,4.40
2023-01-17T03:14:31.118Z,5.22
2023-01-17T03:18:16.949Z,6.03
2023-01-17T03:21:58.925Z,4.77
2023-01-17T03:25:40.936Z,5.68
2023-01-17T03:29:22.882Z,5.93
2023-01-17T03:33:04.856Z,6.47
2023-01-17T03:36:46.731Z,6.63
2023-01-17T03:40:28.982Z,6.80
2023-01-17T03:44:10.925Z,6.10
2023-01-17T03:47:54.020Z,6.17
2023-01-17T03:51:35.942Z,6.20
2023-01-17T03:55:18.465Z,6.50
2023-01-17T03:59:00.544Z,5.47
2023-01-17T04:02:42.660Z,6.10
2023-01-17T04:06:24.697Z,6.03
2023-01-17T04:10:07.412Z,5.82
2023-01-17T04:13:49.403Z,5.57
2023-01-17T04:17:31.448Z,6.38
2023-01-17T04:21:13.395Z,6.63
2023-01-17T04:24:55.319Z,6.60
2023-01-17T04:28:37.167Z,6.88
2023-01-17T04:32:19.307Z,6.57
2023-01-17T04:36:01.333Z,5.83
2023-01-17T04:39:43.373Z,6.07
2023-01-17T04:43:25.295Z,6.10
2023-01-17T04:47:07.610Z,6.57
2023-01-17T04:50:49.551Z,5.53
2023-01-17T04:54:31.532Z,5.60
2023-01-17T04:58:13.444Z,6.63
2023-01-17T05:01:55.396Z,7.60
2023-01-17T05:05:37.396Z,7.25
2023-01-17T05:09:19.311Z,7.35
2023-01-17T05:13:01.308Z,7.73
2023-01-17T05:16:43.275Z,7.43
2023-01-17T05:20:27.066Z,5.88
2023-01-17T05:24:09.028Z,6.97
2023-01-17T05:27:51.496Z,7.63
2023-01-17T05:31:33.441Z,8.05
2023-01-17T05:35:16.593Z,8.57
2023-01-17T05:38:58.785Z,7.70
2023-01-17T05:42:45.859Z,8.55
2023-01-17T05:46:27.946Z,9.40
2023-01-17T05:50:11.814Z,8.30
2023-01-17T05:53:54.031Z,8.32
2023-01-17T05:57:35.944Z,9.57
2023-01-17T06:01:18.008Z,8.80
2023-01-17T06:05:02.441Z,9.07
2023-01-17T06:08:45.260Z,9.48
2023-01-17T06:12:27.218Z,7.38
2023-01-17T06:16:09.404Z,8.80
2023-01-17T06:19:51.380Z,8.60
2023-01-17T06:23:33.440Z,9.27
2023-01-17T06:27:15.387Z,8.77
2023-01-17T06:30:57.449Z,10.25
2023-01-17T06:34:39.350Z,8.45
2023-01-17T06:38:21.926Z,9.35
2023-01-17T06:42:03.925Z,8.93
2023-01-17T06:45:45.902Z,9.65
2023-01-17T06:49:27.931Z,8.65
2023-01-17T06:53:10.556Z,9.43
2023-01-17T06:56:52.466Z,8.77
2023-01-17T07:00:36.477Z,8.90
2023-01-17T07:04:19.128Z,8.77
2023-01-17T07:08:01.090Z,9.18
2023-01-17T07:11:45.323Z,8.77
2023-01-17T07:15:27.352Z,8.90
2023-01-17T07:19:09.283Z,8.40
2023-01-17T07:22:51.154Z,9.50
2023-01-17T07:26:33.524Z,9.90
2023-01-17T07:30:15.675Z,9.03
2023-01-17T07:33:57.539Z,9.10
2023-01-17T07:37:39.593Z,9.85
2023-01-17T07:41:21.949Z,9.33
2023-01-17T07:45:04.261Z,9.32
2023-01-17T07:48:46.220Z,9.55
2023-01-17T07:52:28.426Z,10.43
2023-01-17T07:56:10.333Z,10.07
2023-01-17T07:59:52.384Z,10.57
2023-01-17T08:03:39.848Z,11.20
2023-01-17T08:07:22.426Z,9.73
2023-01-17T08:11:04.422Z,9.80
2023-01-17T08:14:46.423Z,9.38
2023-01-17T08:18:29.108Z,9.60
2023-01-17T08:22:12.374Z,10.68
2023-01-17T08:25:54.347Z,9.30
2023-01-17T08:29:36.406Z,9.18
2023-01-17T08:33:18.389Z,9.73
2023-01-17T08:37:00.427Z,9.98
2023-01-17T08:40:43.189Z,9.32
2023-01-17T08:44:25.255Z,9.10
2023-01-17T08:48:07.351Z,9.48
2023-01-17T08:51:49.338Z,9.90
2023-01-17T08:55:31.340Z,11.07
2023-01-17T08:59:13.640Z,10.63
2023-01-17T09:02:55.662Z,10.52
2023-01-17T09:06:39.667Z,11.70
2023-01-17T09:10:23.358Z,10.37
2023-01-17T09:14:06.072Z,9.77
2023-01-17T09:17:48.222Z,8.73
2023-01-17T09:21:30.187Z,9.93
2023-01-17T09:25:48.537Z,9.57
2023-01-17T09:29:30.956Z,9.55
2023-01-17T09:33:33.473Z,9.60
2023-01-17T09:37:15.792Z,10.23
2023-01-17T09:45:18.353Z,11.10
2023-01-17T09:49:40.970Z,11.27
2023-01-17T10:11:13.365Z,13.00
2023-01-17T10:19:08.827Z,12.15
2023-01-17T10:23:08.707Z,11.00
2023-01-17T10:26:54.578Z,11.90
2023-01-17T10:31:02.351Z,12.18
2023-01-17T10:34:50.817Z,13.20
2023-01-17T10:42:52.965Z,12.35
2023-01-17T10:46:47.967Z,13.50
2023-01-17T10:50:36.650Z,11.80
2023-01-17T10:54:39.701Z,12.25
2023-01-17T10:58:21.899Z,11.52
2023-01-17T11:06:21.899Z,12.77
2023-01-17T11:10:39.821Z,8.55
2023-01-17T11:18:38.757Z,9.50
2023-01-17T11:26:34.712Z,9.50
2023-01-17T11:30:47.825Z,9.05
2023-01-17T11:34:32.212Z,8.48
2023-01-17T11:56:52.331Z,7.67
2023-01-17T13:07:01.063Z,7.87
2023-01-17T13:11:12.099Z,6.72
2023-01-17T13:54:03.489Z,2.65
2023-01-17T14:01:58.314Z,3.30
2023-01-17T14:09:55.340Z,3.37
2023-01-17T14:18:49.733Z,4.65
2023-01-17T14:31:29.679Z,5.07
2023-01-17T14:35:43.243Z,5.50
2023-01-17T14:43:42.950Z,6.95
2023-01-17T15:00:30.443Z,5.50
2023-01-17T15:08:35.019Z,4.88
2023-01-17T15:12:52.494Z,4.80
2023-01-17T15:21:02.871Z,4.60
2023-01-17T15:28:49.986Z,5.03
2023-01-17T15:45:36.319Z,4.30
2023-01-17T15:53:25.371Z,5.22
2023-01-17T16:01:35.857Z,4.45
2023-01-17T16:05:49.939Z,6.15
2023-01-17T16:13:47.393Z,6.28
2023-01-17T16:21:59.189Z,6.53
2023-01-17T16:26:01.757Z,7.23
2023-01-17T16:29:44.903Z,7.07
2023-01-17T16:34:13.079Z,6.90
2023-01-17T16:38:26.538Z,7.90
2023-01-17T16:42:12.043Z,8.30
2023-01-17T16:45:55.651Z,9.02
2023-01-17T16:49:37.802Z,7.37
2023-01-17T16:53:24.488Z,10.80
2023-01-17T16:57:06.992Z,8.98
2023-01-17T17:00:49.193Z,9.55
2023-01-17T17:04:31.102Z,10.90
2023-01-17T17:08:19.589Z,9.82
2023-01-17T17:12:10.198Z,8.32
2023-01-17T17:15:52.337Z,8.13
2023-01-17T17:19:34.896Z,7.55
2023-01-17T17:23:17.170Z,7.72
2023-01-17T17:26:59.168Z,7.90
2023-01-17T17:30:41.177Z,7.40
2023-01-17T17:34:25.667Z,7.28
2023-01-17T17:38:07.683Z,8.45
2023-01-17T17:41:49.700Z,7.00
2023-01-17T17:45:31.685Z,7.43
2023-01-17T17:49:13.702Z,7.03
2023-01-17T17:52:55.643Z,6.60
2023-01-17T17:56:39.388Z,6.15
2023-01-17T18:00:23.272Z,6.47
2023-01-17T18:04:07.536Z,7.03
2023-01-17T18:07:51.043Z,5.85
2023-01-17T18:11:33.416Z,6.65
2023-01-17T18:15:15.485Z,6.75
2023-01-17T18:18:58.811Z,7.03
2023-01-17T18:22:41.122Z,6.80
2023-01-17T18:26:25.862Z,6.97
2023-01-17T18:30:08.446Z,6.17
2023-01-17T18:33:50.566Z,6.70
2023-01-17T18:37:33.253Z,6.20
2023-01-17T18:41:27.316Z,6.20
2023-01-17T18:45:09.548Z,6.43
2023-01-17T18:49:22.137Z,6.38
2023-01-17T18:52:55.800Z,8.10
2023-01-17T18:56:38.094Z,7.57
2023-01-17T19:00:20.605Z,6.95
2023-01-17T19:04:04.096Z,7.80
2023-01-17T19:07:46.283Z,11.13
2023-01-17T19:11:28.918Z,13.05
2023-01-17T19:15:11.136Z,12.35
2023-01-17T19:18:54.039Z,11.10
2023-01-17T19:22:36.114Z,11.43
2023-01-17T19:26:20.472Z,12.15
2023-01-17T19:30:02.487Z,11.65
2023-01-17T19:33:47.029Z,11.00
2023-01-17T19:37:29.032Z,12.48
2023-01-17T19:41:23.853Z,10.93
2023-01-17T19:45:06.411Z,9.30
2023-01-17T19:48:48.891Z,7.78
2023-01-17T19:52:31.508Z,7.80
2023-01-17T19:56:25.034Z,9.10
2023-01-17T20:00:16.702Z,8.65
2023-01-17T20:04:00.332Z,8.82
2023-01-17T20:07:42.297Z,10.20
2023-01-17T20:11:25.497Z,10.73
2023-01-17T20:15:08.168Z,12.85
2023-01-17T20:18:50.388Z,11.52
2023-01-17T20:22:32.437Z,10.33
2023-01-17T20:26:16.475Z,10.05
2023-01-17T20:30:08.061Z,9.52
2023-01-17T20:33:56.777Z,9.13
2023-01-17T20:37:39.038Z,9.70
2023-01-17T20:41:23.547Z,10.65
2023-01-17T20:45:07.243Z,12.43
2023-01-17T20:48:54.927Z,9.93
2023-01-17T20:52:36.884Z,10.05
2023-01-17T20:56:19.280Z,8.93
2023-01-17T21:00:01.301Z,7.37
2023-01-17T21:03:43.402Z,7.85
2023-01-17T21:07:27.914Z,7.90
2023-01-17T21:11:12.480Z,8.00
2023-01-17T21:14:54.474Z,8.55
2023-01-17T21:18:36.886Z,8.30
2023-01-17T21:22:18.965Z,10.23
2023-01-17T21:26:01.008Z,8.43
2023-01-17T21:29:43.117Z,7.47
2023-01-17T21:33:26.537Z,6.53
2023-01-17T21:37:08.474Z,15.80
2023-01-17T21:40:50.341Z,16.88
2023-01-17T21:44:36.370Z,17.02
2023-01-17T21:48:18.308Z,15.20
2023-01-17T21:52:00.296Z,12.52
2023-01-17T21:56:00.520Z,10.93
2023-01-17T21:59:42.504Z,9.02
2023-01-17T22:03:24.644Z,8.07
2023-01-17T22:07:06.626Z,8.30
2023-01-17T22:10:48.575Z,6.93
2023-01-17T22:14:30.540Z,6.60
2023-01-17T22:18:14.633Z,6.53
2023-01-17T22:21:56.783Z,6.63
2023-01-17T22:25:38.670Z,6.33
2023-01-17T22:29:21.772Z,6.82
2023-01-17T22:33:03.827Z,6.97
2023-01-17T22:36:45.818Z,6.78
2023-01-17T22:40:27.979Z,7.03
2023-01-17T22:44:11.362Z,8.07
2023-01-17T22:47:53.416Z,6.13
2023-01-17T22:51:36.090Z,6.17
2023-01-17T22:55:18.414Z,6.10
2023-01-17T22:59:01.366Z,6.22
2023-01-17T23:02:43.337Z,6.83
2023-01-17T23:06:37.702Z,6.13
2023-01-17T23:10:38.607Z,6.57
2023-01-17T23:14:58.315Z,6.40
2023-01-17T23:18:58.909Z,5.33
2023-01-17T23:22:40.821Z,4.18
2023-01-17T23:26:22.773Z,4.35
2023-01-17T23:30:08.317Z,4.33
2023-01-17T23:33:50.242Z,4.55
2023-01-17T23:37:50.821Z,4.57
2023-01-17T23:41:50.981Z,4.13
2023-01-17T23:45:37.354Z,3.78
2023-01-17T23:49:19.320Z,4.07
2023-01-17T23:53:07.214Z,4.00
2023-01-17T23:56:49.283Z,3.63
